Time;durP1;ratioP1;P1;durP2;ratioP2;P2;SDS_P1;SDS_P2;PMS_P1;PMS_P2;Temp;Humidity;BMP_temperature;BMP_pressure;BME280_temperature;BME280_humidity;BME280_pressure;Samples;Min_cycle;Max_cycle;Signal;HPM_P1;HPM_P2
2022/03/03 00:02:05;;;;;;;23.70;14.77;;;0.40;99.90;;;;;;5088866;28;20210;-76
2022/03/03 00:04:30;;;;;;;21.57;14.47;;;0.50;99.90;;;;;;5088565;28;20508;-77
2022/03/03 00:06:56;;;;;;;23.13;14.60;;;0.50;99.90;;;;;;5088811;28;20756;-77
2022/03/03 00:09:22;;;;;;;23.50;14.90;;;0.50;99.90;;;;;;5087311;28;20252;-77
2022/03/03 00:11:47;;;;;;;22.90;13.83;;;0.40;99.90;;;;;;5088561;28;20198;-77
2022/03/03 00:14:13;;;;;;;22.70;14.73;;;0.40;99.90;;;;;;5070290;28;20539;-77
2022/03/03 00:16:39;;;;;;;20.13;13.90;;;0.30;99.90;;;;;;5089754;28;20184;-75
2022/03/03 00:19:04;;;;;;;21.10;12.97;;;0.30;99.90;;;;;;5088558;28;20175;-77
2022/03/03 00:21:30;;;;;;;20.97;13.80;;;0.20;99.90;;;;;;5088587;28;20251;-78
2022/03/03 00:23:56;;;;;;;25.27;14.00;;;0.20;99.90;;;;;;5088456;28;20284;-77
2022/03/03 00:26:21;;;;;;;20.70;13.20;;;0.20;99.90;;;;;;5088587;28;20175;-77
2022/03/03 00:28:47;;;;;;;20.40;13.37;;;0.20;99.90;;;;;;5087016;28;20598;-77
2022/03/03 00:31:14;;;;;;;20.23;12.73;;;0.10;99.90;;;;;;5089423;28;20206;-76
2022/03/03 00:33:39;;;;;;;19.10;11.85;;;0.10;99.90;;;;;;5087017;28;20268;-77
2022/03/03 00:36:05;;;;;;;19.00;11.90;;;0.10;99.90;;;;;;5088630;28;20268;-76
2022/03/03 00:38:31;;;;;;;18.47;12.87;;;0.10;99.90;;;;;;5090339;28;20187;-77
2022/03/03 00:40:56;;;;;;;20.87;13.37;;;0.20;99.90;;;;;;5091374;28;20217;-78
2022/03/03 00:43:22;;;;;;;20.30;12.70;;;0.20;99.90;;;;;;5094452;28;20218;-79
2022/03/03 00:45:48;;;;;;;19.80;13.15;;;0.10;99.90;;;;;;5093388;28;20200;-79
2022/03/03 00:48:14;;;;;;;20.93;13.70;;;0.10;99.90;;;;;;5093424;28;20175;-77
2022/03/03 00:50:39;;;;;;;19.33;13.70;;;0.00;99.90;;;;;;5092467;28;20658;-76
2022/03/03 00:53:05;;;;;;;20.43;12.37;;;0.00;99.90;;;;;;5092163;28;20186;-77
2022/03/03 00:55:31;;;;;;;19.87;12.87;;;0.00;99.90;;;;;;5091889;28;20233;-76
2022/03/03 00:57:56;;;;;;;22.63;13.30;;;0.10;99.90;;;;;;5091729;28;20703;-77
2022/03/03 01:00:23;;;;;;;19.90;13.90;;;0.10;99.90;;;;;;5090419;28;20199;-76
2022/03/03 01:02:49;;;;;;;18.50;13.68;;;0.10;99.90;;;;;;5091550;28;20282;-76
2022/03/03 01:05:16;;;;;;;27.55;14.15;;;0.00;99.90;;;;;;5091471;28;20579;-76
2022/03/03 01:07:42;;;;;;;21.40;13.20;;;0.00;99.90;;;;;;5091280;28;20180;-76
2022/03/03 01:10:09;;;;;;;19.40;13.10;;;0.00;99.90;;;;;;5091416;28;20179;-78
2022/03/03 01:12:35;;;;;;;23.50;13.90;;;0.00;99.90;;;;;;5091116;28;20194;-79
2022/03/03 01:15:02;;;;;;;22.67;13.87;;;-0.10;99.90;;;;;;5091349;28;20616;-78
2022/03/03 01:17:28;;;;;;;20.08;13.45;;;-0.10;99.90;;;;;;5090949;28;20186;-78
2022/03/03 01:19:53;;;;;;;23.93;13.80;;;-0.10;99.90;;;;;;5091187;28;20182;-79
2022/03/03 01:22:19;;;;;;;26.90;15.13;;;-0.10;99.90;;;;;;5089789;28;20939;-79
2022/03/03 01:24:45;;;;;;;22.43;14.23;;;-0.10;99.90;;;;;;5091071;28;20210;-78
2022/03/03 01:27:12;;;;;;;24.03;13.90;;;-0.20;99.90;;;;;;5089423;28;20189;-78
2022/03/03 01:29:38;;;;;;;24.73;14.07;;;-0.10;99.90;;;;;;5073087;28;20434;-79
2022/03/03 01:32:05;;;;;;;28.95;14.43;;;-0.10;99.90;;;;;;5090610;28;20206;-78
2022/03/03 01:34:31;;;;;;;23.02;14.50;;;-0.10;99.90;;;;;;5091098;28;20289;-78
2022/03/03 01:36:57;;;;;;;19.60;13.17;;;-0.20;99.90;;;;;;5091248;28;20741;-79
2022/03/03 01:39:22;;;;;;;23.97;14.10;;;-0.10;99.90;;;;;;5091215;28;20194;-79
2022/03/03 01:41:48;;;;;;;23.23;14.00;;;-0.10;99.90;;;;;;5091623;28;20237;-78
2022/03/03 01:44:13;;;;;;;25.40;14.03;;;-0.20;99.90;;;;;;5090537;28;20236;-76
2022/03/03 01:46:54;;;;;;;20.00;13.00;;;-0.20;99.90;;;;;;5091011;28;20186;-77
2022/03/03 01:49:20;;;;;;;22.60;15.88;;;-0.20;99.90;;;;;;5090959;28;20625;-77
2022/03/03 01:51:46;;;;;;;23.55;15.55;;;-0.20;99.90;;;;;;5090414;28;20206;-77
2022/03/03 01:54:12;;;;;;;24.70;15.30;;;-0.40;99.90;;;;;;5090932;28;20303;-78
2022/03/03 01:56:40;;;;;;;26.05;16.45;;;-0.50;99.90;;;;;;5091279;28;20201;-77
2022/03/03 01:59:06;;;;;;;28.08;17.83;;;-0.50;99.90;;;;;;5092460;28;20206;-78
2022/03/03 02:01:32;;;;;;;28.47;15.70;;;-0.50;99.90;;;;;;5073825;28;20233;-78
2022/03/03 02:03:58;;;;;;;35.00;16.73;;;-0.50;99.90;;;;;;5090068;28;20226;-78
2022/03/03 02:06:25;;;;;;;24.50;14.97;;;-0.50;99.90;;;;;;5092718;28;20210;-78
2022/03/03 02:08:52;;;;;;;21.05;14.75;;;-0.50;99.90;;;;;;5093534;28;20482;-77
2022/03/03 02:11:20;;;;;;;24.25;15.25;;;-0.50;99.90;;;;;;5075506;28;20692;-79
2022/03/03 02:13:46;;;;;;;24.95;14.65;;;-0.50;99.90;;;;;;5090868;28;20187;-77
2022/03/03 02:16:12;;;;;;;22.27;14.00;;;-0.40;99.90;;;;;;5089366;28;20190;-77
2022/03/03 02:18:42;;;;;;;22.40;13.60;;;-0.40;99.90;;;;;;5090672;28;20217;-78
2022/03/03 02:21:12;;;;;;;23.33;15.00;;;-0.40;99.90;;;;;;5091101;28;20308;-77
2022/03/03 02:23:39;;;;;;;22.05;13.50;;;-0.40;99.90;;;;;;5072787;28;20218;-77
2022/03/03 02:26:06;;;;;;;26.38;13.70;;;-0.60;99.90;;;;;;5088970;28;20660;-78
2022/03/03 02:28:32;;;;;;;20.20;12.85;;;-0.50;99.90;;;;;;5090525;28;20199;-78
2022/03/03 02:30:58;;;;;;;24.02;15.02;;;-0.50;99.90;;;;;;5090793;28;20208;-77
2022/03/03 02:33:24;;;;;;;21.00;12.40;;;-0.50;99.90;;;;;;5088960;28;20191;-76
2022/03/03 02:35:50;;;;;;;24.33;14.83;;;-0.50;99.90;;;;;;5088526;28;20215;-77
2022/03/03 02:38:15;;;;;;;38.93;19.97;;;-0.60;99.90;;;;;;5089930;28;20561;-76
2022/03/03 02:40:41;;;;;;;29.33;18.20;;;-0.60;99.90;;;;;;5088473;28;20661;-77
2022/03/03 02:43:06;;;;;;;30.13;16.10;;;-0.70;99.90;;;;;;5088625;28;20222;-78
2022/03/03 02:45:32;;;;;;;30.47;19.13;;;-0.80;99.90;;;;;;5088659;28;20264;-78
2022/03/03 02:47:58;;;;;;;24.10;16.20;;;-0.90;99.90;;;;;;5090129;28;20221;-78
2022/03/03 02:50:25;;;;;;;28.73;16.15;;;-0.80;99.90;;;;;;5090408;28;20592;-78
2022/03/03 02:52:51;;;;;;;30.15;16.05;;;-0.80;99.90;;;;;;5089773;28;20183;-79
2022/03/03 02:55:17;;;;;;;29.05;15.43;;;-0.80;99.90;;;;;;5092344;28;20233;-78
2022/03/03 02:57:56;;;;;;;25.50;16.50;;;-0.80;99.90;;;;;;5091030;28;20217;-78
2022/03/03 03:00:27;;;;;;;28.60;16.60;;;-0.80;99.90;;;;;;5090844;28;20161;-78
2022/03/03 03:02:53;;;;;;;27.85;17.58;;;-0.80;99.90;;;;;;5090163;28;20224;-79
2022/03/03 03:05:19;;;;;;;25.65;16.10;;;-0.70;99.90;;;;;;5074438;28;20286;-78
2022/03/03 03:07:45;;;;;;;29.67;18.00;;;-0.70;99.90;;;;;;5073335;28;20218;-77
2022/03/03 03:10:10;;;;;;;28.97;16.00;;;-0.70;99.90;;;;;;5088528;28;20612;-76
2022/03/03 03:12:36;;;;;;;26.07;16.00;;;-0.70;99.90;;;;;;5088548;28;20936;-76
2022/03/03 03:15:02;;;;;;;27.47;16.50;;;-0.70;99.90;;;;;;5088308;28;20188;-77
2022/03/03 03:17:28;;;;;;;29.60;17.40;;;-0.70;99.90;;;;;;5071622;28;20195;-77
2022/03/03 03:19:53;;;;;;;26.83;17.30;;;-0.70;99.90;;;;;;5088352;28;20445;-77
2022/03/03 03:22:19;;;;;;;29.53;16.90;;;-0.80;99.90;;;;;;5089347;28;20202;-75
2022/03/03 03:24:44;;;;;;;26.10;16.20;;;-0.90;99.90;;;;;;5088109;28;20210;-77
2022/03/03 03:27:10;;;;;;;23.40;14.50;;;-0.90;99.90;;;;;;5088183;28;20187;-77
2022/03/03 03:29:36;;;;;;;23.10;15.27;;;-1.00;99.90;;;;;;5071300;28;20273;-78
2022/03/03 03:32:01;;;;;;;25.87;15.27;;;-1.10;99.90;;;;;;5088339;28;20729;-77
2022/03/03 03:34:27;;;;;;;26.77;15.87;;;-1.10;99.90;;;;;;5089738;28;20981;-77
2022/03/03 03:36:53;;;;;;;24.07;16.50;;;-1.20;99.90;;;;;;5089716;28;20889;-77
2022/03/03 03:39:18;;;;;;;68.83;35.17;;;-1.20;99.90;;;;;;5088362;28;20271;-77
2022/03/03 03:41:44;;;;;;;27.63;15.70;;;-1.30;99.90;;;;;;5089481;28;20205;-77
2022/03/03 03:44:11;;;;;;;25.27;15.50;;;-1.40;99.90;;;;;;5088309;28;20708;-77
2022/03/03 03:46:37;;;;;;;24.98;15.75;;;-1.30;99.90;;;;;;5089377;28;20183;-76
2022/03/03 03:49:03;;;;;;;24.33;15.20;;;-1.20;99.90;;;;;;5087788;28;20189;-77
2022/03/03 03:51:29;;;;;;;22.50;14.32;;;-1.10;99.90;;;;;;5088946;28;20534;-77
2022/03/03 03:53:54;;;;;;;26.17;16.27;;;-1.10;99.90;;;;;;5089651;28;20336;-78
2022/03/03 03:56:20;;;;;;;26.17;16.37;;;-1.20;99.90;;;;;;5088403;28;20180;-78
2022/03/03 03:58:46;;;;;;;26.80;13.90;;;-1.20;99.90;;;;;;5087588;28;20269;-75
2022/03/03 04:01:12;;;;;;;28.80;15.43;;;-1.30;99.90;;;;;;5088832;28;20221;-76
2022/03/03 04:03:38;;;;;;;26.00;16.30;;;-1.30;99.90;;;;;;5089200;28;20435;-76
2022/03/03 04:06:05;;;;;;;25.30;14.82;;;-1.30;99.90;;;;;;5089152;28;21017;-76
2022/03/03 04:08:31;;;;;;;28.10;15.98;;;-1.40;99.90;;;;;;5089101;28;20174;-76
2022/03/03 04:10:57;;;;;;;21.00;13.03;;;-1.40;99.90;;;;;;5089084;28;20213;-76
2022/03/03 04:13:22;;;;;;;22.13;14.10;;;-1.40;99.90;;;;;;5091776;28;20434;-76
2022/03/03 04:15:48;;;;;;;27.67;15.60;;;-1.30;99.90;;;;;;5091561;28;20188;-76
2022/03/03 04:18:14;;;;;;;23.13;13.70;;;-1.40;99.90;;;;;;5092710;28;20188;-76
2022/03/03 04:20:40;;;;;;;25.33;15.37;;;-1.40;99.90;;;;;;5074344;28;20711;-76
2022/03/03 04:23:05;;;;;;;23.63;15.20;;;-1.40;99.90;;;;;;5090920;28;20214;-76
2022/03/03 04:25:32;;;;;;;26.53;15.40;;;-1.40;99.90;;;;;;5092501;28;20620;-76
2022/03/03 04:27:58;;;;;;;26.60;15.52;;;-1.40;99.90;;;;;;5092132;28;20175;-76
2022/03/03 04:30:24;;;;;;;22.13;14.27;;;-1.50;99.90;;;;;;5092752;28;20305;-77
2022/03/03 04:32:51;;;;;;;22.73;13.67;;;-1.70;99.90;;;;;;5092562;28;20186;-77
2022/03/03 04:35:17;;;;;;;26.75;15.40;;;-1.60;99.90;;;;;;5092899;28;20877;-77
2022/03/03 04:37:42;;;;;;;24.23;14.63;;;-1.60;99.90;;;;;;5092144;28;20219;-78
2022/03/03 04:40:09;;;;;;;28.27;14.77;;;-1.60;99.90;;;;;;5074359;28;20194;-77
2022/03/03 04:42:35;;;;;;;20.23;13.18;;;-1.60;99.90;;;;;;5092696;28;20290;-79
2022/03/03 04:45:02;;;;;;;27.88;12.77;;;-1.70;99.90;;;;;;5094356;28;20210;-77
2022/03/03 04:47:28;;;;;;;21.75;13.30;;;-1.80;99.90;;;;;;5092653;28;20181;-77
2022/03/03 04:49:54;;;;;;;21.43;13.13;;;-1.70;99.90;;;;;;5090747;28;20558;-77
2022/03/03 04:52:19;;;;;;;22.23;14.47;;;-1.80;99.90;;;;;;5091827;28;20440;-77
2022/03/03 04:54:45;;;;;;;22.63;14.43;;;-1.90;99.90;;;;;;5092229;28;20199;-77
2022/03/03 04:57:11;;;;;;;19.40;12.50;;;-1.80;99.90;;;;;;5092122;28;20190;-75
2022/03/03 04:59:36;;;;;;;22.53;14.00;;;-1.80;99.90;;;;;;5093875;28;20615;-78
2022/03/03 05:02:02;;;;;;;19.43;13.00;;;-1.80;99.90;;;;;;5093208;28;20202;-77
2022/03/03 05:04:28;;;;;;;23.00;13.93;;;-1.70;99.90;;;;;;5057694;28;20231;-77
2022/03/03 05:06:53;;;;;;;20.60;14.07;;;-1.70;99.90;;;;;;5091732;28;20443;-77
2022/03/03 05:09:19;;;;;;;21.10;12.60;;;-1.70;99.90;;;;;;5073656;28;20193;-77
2022/03/03 05:11:45;;;;;;;22.30;13.37;;;-1.70;99.90;;;;;;5089399;28;20209;-77
2022/03/03 05:14:10;;;;;;;23.73;13.90;;;-1.70;99.90;;;;;;5072999;28;20787;-77
2022/03/03 05:16:36;;;;;;;32.47;13.57;;;-1.70;99.90;;;;;;5089792;28;20847;-77
2022/03/03 05:19:03;;;;;;;28.63;14.73;;;-1.70;99.90;;;;;;5072931;28;20239;-77
2022/03/03 05:21:28;;;;;;;22.58;12.13;;;-1.70;99.90;;;;;;5090762;28;20432;-77
2022/03/03 05:23:54;;;;;;;25.10;12.47;;;-1.70;99.90;;;;;;5089677;28;20211;-77
2022/03/03 05:26:20;;;;;;;19.77;13.05;;;-1.60;99.90;;;;;;5091090;28;20178;-77
2022/03/03 05:28:46;;;;;;;18.57;12.70;;;-1.60;99.90;;;;;;5089105;28;20186;-77
2022/03/03 05:31:11;;;;;;;21.60;13.87;;;-1.50;99.90;;;;;;5090976;28;20254;-77
2022/03/03 05:33:37;;;;;;;23.50;12.93;;;-1.60;99.90;;;;;;5074113;28;20186;-78
2022/03/03 05:36:06;;;;;;;19.23;13.10;;;-1.60;99.90;;;;;;5090520;28;20309;-77
2022/03/03 05:38:33;;;;;;;29.17;13.25;;;-1.60;99.90;;;;;;5089310;28;20178;-77
2022/03/03 05:40:59;;;;;;;18.08;12.75;;;-1.80;99.90;;;;;;5090582;28;20310;-78
2022/03/03 05:43:26;;;;;;;26.02;13.95;;;-1.70;99.90;;;;;;5091009;28;20687;-77
2022/03/03 05:45:52;;;;;;;19.13;12.93;;;-1.70;99.90;;;;;;5090341;28;20179;-75
2022/03/03 05:48:19;;;;;;;30.65;13.68;;;-1.70;99.90;;;;;;5089661;28;20811;-76
2022/03/03 05:50:46;;;;;;;20.60;14.20;;;-1.80;99.90;;;;;;5090907;28;20203;-77
2022/03/03 05:53:12;;;;;;;23.38;13.82;;;-1.80;99.90;;;;;;5090971;28;20756;-78
2022/03/03 05:55:46;;;;;;;21.27;13.13;;;-1.80;99.90;;;;;;5090465;28;20178;-76
2022/03/03 05:58:15;;;;;;;22.80;12.27;;;-1.90;99.90;;;;;;5090108;28;20175;-76
2022/03/03 06:00:46;;;;;;;33.53;13.00;;;-1.70;99.90;;;;;;5091099;28;20690;-77
2022/03/03 06:03:22;;;;;;;22.38;14.18;;;-1.80;99.90;;;;;;5090957;28;20182;-77
2022/03/03 06:05:52;;;;;;;20.92;13.35;;;-1.70;99.90;;;;;;5072542;28;20532;-77
2022/03/03 06:08:30;;;;;;;20.65;13.82;;;-1.60;99.90;;;;;;5090895;28;20526;-78
2022/03/03 06:11:01;;;;;;;19.67;12.70;;;-1.60;99.90;;;;;;5090162;28;20545;-78
2022/03/03 06:13:33;;;;;;;22.70;14.50;;;-1.60;99.90;;;;;;5090406;28;20163;-77
2022/03/03 06:16:02;;;;;;;25.30;13.52;;;-1.60;99.90;;;;;;5090838;28;20186;-75
2022/03/03 06:18:33;;;;;;;22.52;13.85;;;-1.70;99.90;;;;;;5091227;28;20238;-76
2022/03/03 06:20:59;;;;;;;26.70;14.85;;;-1.60;99.90;;;;;;5089084;28;20572;-76
2022/03/03 06:23:26;;;;;;;23.30;14.52;;;-1.60;99.90;;;;;;5093080;28;20202;-78
2022/03/03 06:26:02;;;;;;;24.55;13.82;;;-1.60;99.90;;;;;;5091270;28;20175;-76
2022/03/03 06:28:29;;;;;;;27.58;15.52;;;-1.70;99.90;;;;;;5091452;28;20595;-78
2022/03/03 06:30:55;;;;;;;32.15;16.20;;;-1.80;99.90;;;;;;5092283;28;20577;-78
2022/03/03 06:33:21;;;;;;;25.92;15.98;;;-1.90;99.90;;;;;;5091501;28;20185;-78
2022/03/03 06:35:46;;;;;;;26.07;15.80;;;-2.00;99.90;;;;;;5091496;28;20190;-77
2022/03/03 06:38:12;;;;;;;23.93;15.77;;;-2.00;99.90;;;;;;5092586;28;20183;-78
2022/03/03 06:40:38;;;;;;;32.93;15.73;;;-2.00;99.90;;;;;;5074512;28;20206;-76
2022/03/03 06:43:04;;;;;;;27.60;16.60;;;-2.00;99.90;;;;;;5092671;28;20187;-78
2022/03/03 06:45:31;;;;;;;24.60;15.95;;;-1.90;99.90;;;;;;5092977;28;20615;-77
2022/03/03 06:47:58;;;;;;;32.92;16.98;;;-1.60;99.90;;;;;;5092164;28;20557;-77
2022/03/03 06:50:24;;;;;;;24.30;15.13;;;-1.40;99.90;;;;;;5093249;28;20286;-77
2022/03/03 06:52:51;;;;;;;29.00;15.90;;;-1.00;99.90;;;;;;5092617;28;20182;-78
2022/03/03 06:55:22;;;;;;;22.13;14.75;;;-0.30;99.90;;;;;;5089432;28;20222;-78
2022/03/03 06:57:53;;;;;;;36.65;17.50;;;0.40;99.90;;;;;;5090306;28;20178;-77
2022/03/03 07:00:20;;;;;;;27.92;18.05;;;0.70;99.90;;;;;;5088757;28;21103;-77
2022/03/03 07:02:47;;;;;;;29.55;17.23;;;1.20;99.90;;;;;;5090021;28;20183;-77
2022/03/03 07:05:17;;;;;;;23.65;15.93;;;1.50;99.80;;;;;;5089672;28;20211;-76
2022/03/03 07:07:45;;;;;;;27.63;15.75;;;1.80;99.90;;;;;;5088514;28;20192;-78
2022/03/03 07:10:12;;;;;;;22.98;15.85;;;1.80;99.50;;;;;;5089833;28;20255;-77
2022/03/03 07:12:38;;;;;;;21.60;15.60;;;2.10;98.90;;;;;;5090274;28;20238;-77
2022/03/03 07:15:05;;;;;;;22.40;14.60;;;2.30;98.20;;;;;;5088191;28;20451;-77
2022/03/03 07:17:47;;;;;;;25.58;14.57;;;2.40;97.50;;;;;;5090581;28;20839;-76
2022/03/03 07:20:44;;;;;;;23.90;14.43;;;2.50;97.00;;;;;;5089265;28;20193;-76
2022/03/03 07:23:29;;;;;;;63.37;17.47;;;3.70;96.50;;;;;;5090785;28;20569;-77
2022/03/03 07:25:58;;;;;;;37.73;17.73;;;4.50;94.40;;;;;;5090804;28;20426;-77
2022/03/03 07:28:27;;;;;;;33.63;17.10;;;5.20;93.60;;;;;;5056039;28;20937;-77
2022/03/03 07:30:54;;;;;;;31.53;16.23;;;5.40;91.80;;;;;;5090372;28;20432;-77
2022/03/03 07:33:24;;;;;;;32.37;16.83;;;5.60;91.20;;;;;;5088886;28;20443;-77
2022/03/03 07:35:55;;;;;;;28.23;14.90;;;5.90;91.50;;;;;;5090803;28;20929;-76
2022/03/03 07:38:26;;;;;;;34.87;15.50;;;6.50;89.00;;;;;;5091041;28;20484;-77
2022/03/03 07:40:52;;;;;;;30.57;14.80;;;7.10;88.80;;;;;;5090479;28;21000;-76
2022/03/03 07:43:18;;;;;;;30.20;14.73;;;7.20;84.00;;;;;;5088190;28;20432;-77
2022/03/03 07:45:45;;;;;;;29.03;13.30;;;7.30;83.90;;;;;;5089053;28;20473;-77
2022/03/03 07:48:12;;;;;;;17.43;13.50;;;7.20;83.00;;;;;;5091422;28;20936;-76
2022/03/03 07:50:41;;;;;;;35.00;22.40;;;6.90;84.70;;;;;;5095499;28;20440;-76
2022/03/03 07:53:10;;;;;;;35.33;20.93;;;6.00;86.60;;;;;;5095792;28;20438;-77
2022/03/03 07:55:46;;;;;;;34.80;18.83;;;5.40;89.20;;;;;;5092442;28;20990;-76
2022/03/03 07:58:26;;;;;;;31.57;20.10;;;5.10;91.80;;;;;;5091325;28;20411;-75
2022/03/03 08:00:53;;;;;;;34.20;18.60;;;4.50;93.20;;;;;;5092412;28;20435;-77
2022/03/03 08:03:22;;;;;;;27.87;18.83;;;4.30;93.60;;;;;;5073772;28;20420;-76
2022/03/03 08:05:51;;;;;;;28.93;17.73;;;4.30;94.80;;;;;;5073989;28;20477;-77
2022/03/03 08:08:21;;;;;;;26.65;16.52;;;4.60;94.70;;;;;;5092496;28;20894;-77
2022/03/03 08:10:48;;;;;;;27.40;17.53;;;4.70;93.40;;;;;;5091406;28;20221;-77
2022/03/03 08:13:16;;;;;;;28.43;17.77;;;4.90;93.20;;;;;;5092270;28;20484;-77
2022/03/03 08:15:43;;;;;;;32.20;17.47;;;5.50;92.20;;;;;;5093583;28;20423;-77
2022/03/03 08:18:10;;;;;;;24.20;15.73;;;5.80;92.70;;;;;;5091299;28;20468;-77
2022/03/03 08:20:38;;;;;;;24.73;16.43;;;6.20;91.70;;;;;;5092520;28;20432;-77
2022/03/03 08:23:05;;;;;;;23.43;16.60;;;6.60;90.40;;;;;;5092387;28;20856;-76
2022/03/03 08:25:30;;;;;;;26.40;15.60;;;7.20;86.50;;;;;;5093419;28;20420;-75
2022/03/03 08:27:56;;;;;;;23.20;16.47;;;7.70;84.50;;;;;;5093186;28;20553;-77
2022/03/03 08:30:22;;;;;;;24.40;16.70;;;8.20;82.20;;;;;;5091758;28;20210;-76
2022/03/03 08:33:15;;;;;;;22.07;15.60;;;8.80;78.80;;;;;;5093415;28;20693;-77
2022/03/03 08:35:44;;;;;;;24.60;16.67;;;8.80;73.60;;;;;;5092003;28;20408;-76
2022/03/03 08:38:46;;;;;;;32.10;17.00;;;8.90;74.80;;;;;;5093425;28;20442;-77
2022/03/03 08:41:14;;;;;;;25.47;17.27;;;9.10;74.40;;;;;;5070306;28;20426;-77
2022/03/03 08:43:42;;;;;;;22.80;15.67;;;9.30;72.60;;;;;;5093138;28;20488;-78
2022/03/03 08:46:09;;;;;;;25.40;17.17;;;9.00;72.20;;;;;;5092319;28;20412;-78
2022/03/03 08:48:35;;;;;;;24.13;17.50;;;8.70;76.00;;;;;;5091322;28;20477;-75
2022/03/03 08:51:02;;;;;;;24.63;17.03;;;9.00;75.30;;;;;;5091906;28;20437;-78
2022/03/03 08:53:28;;;;;;;21.93;16.77;;;9.50;74.40;;;;;;5093214;28;20197;-77
2022/03/03 08:55:54;;;;;;;25.07;17.50;;;9.90;73.80;;;;;;5094386;28;20420;-77
2022/03/03 08:58:21;;;;;;;24.37;17.53;;;10.10;70.10;;;;;;5092934;28;20422;-77
2022/03/03 09:00:48;;;;;;;29.00;18.93;;;10.50;70.10;;;;;;5090916;28;20535;-77
2022/03/03 09:03:15;;;;;;;25.50;17.90;;;11.00;68.40;;;;;;5091239;28;20422;-76
2022/03/03 09:05:41;;;;;;;28.60;19.53;;;11.60;66.50;;;;;;5092214;28;20417;-77
2022/03/03 09:08:07;;;;;;;27.00;18.60;;;11.80;65.40;;;;;;5092364;28;20445;-77
2022/03/03 09:10:33;;;;;;;26.10;18.83;;;12.10;64.20;;;;;;5091320;28;21008;-77
2022/03/03 09:13:00;;;;;;;25.23;18.80;;;12.00;63.50;;;;;;5093892;28;20462;-77
2022/03/03 09:15:26;;;;;;;27.37;19.40;;;12.40;63.10;;;;;;5093467;28;20441;-78
2022/03/03 09:17:52;;;;;;;26.63;18.70;;;12.20;60.90;;;;;;5093107;28;20431;-78
2022/03/03 09:20:17;;;;;;;29.07;19.40;;;12.30;61.90;;;;;;5093457;28;20428;-78
2022/03/03 09:22:45;;;;;;;27.40;18.50;;;12.10;62.00;;;;;;5093072;28;20562;-77
2022/03/03 09:25:11;;;;;;;29.00;17.60;;;12.50;60.40;;;;;;5094455;28;20276;-78
2022/03/03 09:27:37;;;;;;;22.37;16.97;;;12.90;60.60;;;;;;5092830;28;20436;-78
2022/03/03 09:30:04;;;;;;;27.00;19.13;;;13.50;58.10;;;;;;5095006;28;20416;-76
2022/03/03 09:32:30;;;;;;;25.47;19.27;;;13.60;56.60;;;;;;5092458;28;20536;-79
2022/03/03 09:34:56;;;;;;;31.23;19.27;;;14.00;56.00;;;;;;5076251;28;20514;-78
2022/03/03 09:37:21;;;;;;;27.33;18.77;;;14.30;56.10;;;;;;5093130;28;20204;-78
2022/03/03 09:39:50;;;;;;;23.27;18.17;;;14.20;55.80;;;;;;5094716;28;20258;-78
2022/03/03 09:42:17;;;;;;;29.03;18.20;;;14.50;54.10;;;;;;5094184;28;20212;-77
2022/03/03 09:44:43;;;;;;;23.87;19.00;;;14.60;53.70;;;;;;5093093;28;20471;-79
2022/03/03 09:47:11;;;;;;;25.20;18.90;;;14.80;53.20;;;;;;5092028;28;20428;-77
2022/03/03 09:49:37;;;;;;;20.70;17.03;;;14.90;52.50;;;;;;5090984;28;20931;-77
2022/03/03 09:52:14;;;;;;;23.70;18.27;;;15.20;52.30;;;;;;5091841;28;20439;-77
2022/03/03 09:54:42;;;;;;;26.63;19.70;;;15.40;51.20;;;;;;5093233;28;20450;-78
2022/03/03 09:57:08;;;;;;;20.77;16.57;;;15.70;51.20;;;;;;5090846;28;20439;-78
2022/03/03 09:59:33;;;;;;;30.07;19.43;;;15.70;49.80;;;;;;5092764;28;20788;-76
2022/03/03 10:02:06;;;;;;;26.77;18.00;;;15.70;49.00;;;;;;5091538;28;20267;-76
2022/03/03 10:04:33;;;;;;;28.70;18.50;;;15.90;49.40;;;;;;5092679;28;20678;-78
2022/03/03 10:07:04;;;;;;;33.20;18.60;;;15.40;49.50;;;;;;5091588;28;20511;-78
2022/03/03 10:09:31;;;;;;;32.60;19.53;;;15.40;50.20;;;;;;5092410;28;20927;-77
2022/03/03 10:12:05;;;;;;;25.70;17.30;;;15.60;48.70;;;;;;5092077;28;21294;-78
2022/03/03 10:14:36;;;;;;;27.67;17.70;;;15.40;48.70;;;;;;5090906;28;20413;-77
2022/03/03 10:17:05;;;;;;;25.47;19.33;;;16.00;48.40;;;;;;5059644;28;20430;-78
2022/03/03 10:19:32;;;;;;;29.17;17.97;;;15.70;48.00;;;;;;5091374;28;20566;-77
2022/03/03 10:21:57;;;;;;;21.70;17.10;;;15.90;47.70;;;;;;5092288;28;20437;-76
2022/03/03 10:24:26;;;;;;;20.60;16.67;;;16.10;48.30;;;;;;5093083;28;20471;-77
2022/03/03 10:27:00;;;;;;;23.67;18.33;;;16.60;48.30;;;;;;5075474;28;20178;-78
2022/03/03 10:29:27;;;;;;;23.30;17.33;;;16.80;46.90;;;;;;5092062;28;20412;-80
2022/03/03 10:31:55;;;;;;;30.53;19.40;;;17.00;46.70;;;;;;5093359;28;20527;-78
2022/03/03 10:34:25;;;;;;;23.90;19.47;;;17.10;47.60;;;;;;5093796;28;20421;-79
2022/03/03 10:37:09;;;;;;;24.17;19.07;;;16.70;46.70;;;;;;5094677;28;20939;-79
2022/03/03 10:39:47;;;;;;;24.47;18.20;;;16.90;48.00;;;;;;5093431;28;20435;-80
2022/03/03 10:42:24;;;;;;;28.57;19.17;;;17.00;46.30;;;;;;5091706;28;20454;-78
2022/03/03 10:45:09;;;;;;;32.47;20.27;;;17.00;46.50;;;;;;5091183;28;20535;-78
2022/03/03 10:47:35;;;;;;;26.63;18.43;;;17.20;46.40;;;;;;5074085;28;20432;-77
2022/03/03 10:50:01;;;;;;;26.23;19.77;;;17.30;45.80;;;;;;5093222;28;20420;-78
2022/03/03 10:52:34;;;;;;;26.73;18.73;;;17.30;45.70;;;;;;5092491;28;20501;-79
2022/03/03 10:55:11;;;;;;;32.10;19.87;;;16.90;46.40;;;;;;5090348;28;20484;-78
2022/03/03 10:57:40;;;;;;;30.53;20.37;;;16.80;46.50;;;;;;5090668;28;20412;-78
2022/03/03 11:00:21;;;;;;;25.80;19.63;;;16.90;46.20;;;;;;5092261;28;20460;-80
2022/03/03 11:02:49;;;;;;;25.33;18.87;;;17.20;45.30;;;;;;5091102;28;20416;-78
2022/03/03 11:05:16;;;;;;;28.53;19.30;;;17.40;45.20;;;;;;5105135;28;21073;-77
2022/03/03 11:07:44;;;;;;;27.90;17.73;;;17.70;43.90;;;;;;5097662;28;20423;-78
2022/03/03 11:10:12;;;;;;;25.00;19.10;;;17.60;43.70;;;;;;5090578;28;20949;-80
2022/03/03 11:12:39;;;;;;;27.77;18.57;;;17.60;42.10;;;;;;5092897;28;20539;-79
2022/03/03 11:15:06;;;;;;;27.10;18.57;;;17.80;42.20;;;;;;5074050;28;20434;-79
2022/03/03 11:17:32;;;;;;;25.10;18.30;;;17.90;41.20;;;;;;5093449;28;20507;-79
2022/03/03 11:19:59;;;;;;;27.07;18.63;;;18.00;40.90;;;;;;5073606;28;20553;-80
2022/03/03 11:22:26;;;;;;;29.27;18.70;;;17.50;41.00;;;;;;5091236;28;20430;-79
2022/03/03 11:24:55;;;;;;;25.43;18.07;;;17.30;40.60;;;;;;5092069;28;20468;-77
2022/03/03 11:27:31;;;;;;;23.37;17.93;;;17.70;41.00;;;;;;5091582;28;20413;-79
2022/03/03 11:30:16;;;;;;;22.67;17.23;;;18.10;39.60;;;;;;5090598;28;20425;-79
2022/03/03 11:32:43;;;;;;;23.70;18.23;;;18.30;40.90;;;;;;5092017;28;20414;-77
2022/03/03 11:35:12;;;;;;;26.87;18.10;;;18.40;40.50;;;;;;5091545;28;20441;-78
2022/03/03 11:37:45;;;;;;;24.00;18.13;;;18.30;39.60;;;;;;5089936;28;20422;-80
2022/03/03 11:40:18;;;;;;;27.10;18.07;;;18.00;40.90;;;;;;5092231;28;20427;-81
2022/03/03 11:42:49;;;;;;;27.03;18.10;;;18.20;40.80;;;;;;5090298;28;21123;-79
2022/03/03 11:45:15;;;;;;;24.87;18.90;;;18.10;40.30;;;;;;5074566;28;20464;-77
2022/03/03 11:47:45;;;;;;;27.27;19.37;;;18.10;39.30;;;;;;5090284;28;20959;-78
2022/03/03 11:50:17;;;;;;;28.93;18.67;;;18.00;40.50;;;;;;5074077;28;20752;-79
2022/03/03 11:52:57;;;;;;;25.90;18.23;;;18.00;40.40;;;;;;5091151;28;20420;-77
2022/03/03 11:55:32;;;;;;;24.60;18.40;;;18.30;39.70;;;;;;5090490;28;20442;-78
2022/03/03 11:58:10;;;;;;;26.70;20.20;;;17.90;38.60;;;;;;5089998;28;20429;-80
2022/03/03 12:00:39;;;;;;;31.97;18.43;;;18.40;39.20;;;;;;5088965;28;20447;-78
2022/03/03 12:03:07;;;;;;;25.60;18.90;;;18.30;38.80;;;;;;5090946;28;21166;-78
2022/03/03 12:05:41;;;;;;;27.10;19.07;;;18.50;39.80;;;;;;5090509;28;20490;-78
2022/03/03 12:08:16;;;;;;;29.20;19.73;;;18.80;39.70;;;;;;5089655;28;20425;-77
2022/03/03 12:11:15;;;;;;;25.83;18.07;;;18.70;37.20;;;;;;5090725;28;20423;-78
2022/03/03 12:13:41;;;;;;;22.60;16.10;;;18.40;37.20;;;;;;5085097;28;20432;-80
2022/03/03 12:16:32;;;;;;;27.73;19.03;;;18.40;37.20;;;;;;5089160;28;20514;-80
2022/03/03 12:19:01;;;;;;;28.03;18.60;;;18.60;38.00;;;;;;5089241;28;20771;-77
2022/03/03 12:21:40;;;;;;;28.23;18.70;;;18.20;38.30;;;;;;5089287;28;20439;-81
2022/03/03 12:24:14;;;;;;;29.60;18.30;;;18.00;38.90;;;;;;5089636;28;20470;-79
2022/03/03 12:27:01;;;;;;;26.60;18.53;;;18.20;40.00;;;;;;5090066;28;20411;-79
2022/03/03 12:29:39;;;;;;;27.47;18.17;;;18.10;38.50;;;;;;5089277;28;20420;-78
2022/03/03 12:32:44;;;;;;;32.07;19.30;;;18.30;39.20;;;;;;5091266;28;20438;-79
2022/03/03 12:35:26;;;;;;;26.47;19.83;;;18.30;39.20;;;;;;5094748;28;20423;-78
2022/03/03 12:37:56;;;;;;;34.40;21.73;;;17.90;39.50;;;;;;5095590;28;20498;-78